Time;durP1;ratioP1;P1;durP2;ratioP2;P2;SDS_P1;SDS_P2;PMS_P1;PMS_P2;Temp;Humidity;BMP_temperature;BMP_pressure;BME280_temperature;BME280_humidity;BME280_pressure;Samples;Min_cycle;Max_cycle;Signal;HPM_P1;HPM_P2
2022/02/18 00:00:20;;;;;;;;;;;22.80;39.20;;;;;;675627;29;1397;-85
2022/02/18 00:00:42;;;;;;;;;;;22.80;39.10;;;;;;675292;29;1205;-84
2022/02/18 00:01:05;;;;;;;;;;;22.80;39.20;;;;;;675363;29;943;-84
2022/02/18 00:01:25;;;;;;;;;;;22.80;39.40;;;;;;675207;29;979;-84
2022/02/18 00:01:46;;;;;;;;;;;22.80;39.40;;;;;;676051;29;1361;-84
2022/02/18 00:02:06;;;;;;;;;;;22.80;39.20;;;;;;678009;29;866;-85
2022/02/18 00:02:27;;;;;;;;;;;22.80;39.40;;;;;;675982;29;1370;-84
2022/02/18 00:02:47;;;;;;;;;;;22.80;39.50;;;;;;678204;29;791;-84
2022/02/18 00:03:08;;;;;;;;;;;22.80;39.40;;;;;;678276;29;879;-84
2022/02/18 00:03:29;;;;;;;;;;;22.80;39.30;;;;;;680601;29;823;-84
2022/02/18 00:03:49;;;;;;;;;;;22.80;39.10;;;;;;680627;29;1287;-84
2022/02/18 00:04:10;;;;;;;;;;;22.80;39.30;;;;;;680845;29;1177;-84
2022/02/18 00:04:30;;;;;;;;;;;22.80;39.20;;;;;;680462;29;1382;-83
2022/02/18 00:04:52;;;;;;;;;;;22.80;39.40;;;;;;680669;29;855;-83
2022/02/18 00:05:12;;;;;;;;;;;22.80;39.40;;;;;;680706;29;827;-85
2022/02/18 00:05:33;;;;;;;;;;;22.80;39.40;;;;;;677940;29;875;-84
2022/02/18 00:05:54;;;;;;;;;;;22.80;39.30;;;;;;677804;29;1508;-84
2022/02/18 00:06:14;;;;;;;;;;;22.80;39.30;;;;;;675983;29;1243;-84
2022/02/18 00:06:35;;;;;;;;;;;22.80;39.30;;;;;;678171;29;863;-84
2022/02/18 00:06:56;;;;;;;;;;;22.80;39.20;;;;;;675450;29;1513;-84
2022/02/18 00:07:16;;;;;;;;;;;22.80;39.10;;;;;;673209;29;1100;-84
2022/02/18 00:07:37;;;;;;;;;;;22.80;39.10;;;;;;672906;29;848;-83
2022/02/18 00:07:57;;;;;;;;;;;22.80;39.30;;;;;;673251;29;934;-84
2022/02/18 00:08:18;;;;;;;;;;;22.80;40.50;;;;;;672937;29;1956;-84
2022/02/18 00:08:39;;;;;;;;;;;22.80;39.40;;;;;;673180;29;836;-83
2022/02/18 00:08:59;;;;;;;;;;;22.80;39.30;;;;;;672781;29;1251;-84
2022/02/18 00:09:20;;;;;;;;;;;22.80;39.20;;;;;;673274;29;824;-84
2022/02/18 00:09:40;;;;;;;;;;;22.80;39.30;;;;;;675760;29;922;-83
2022/02/18 00:10:01;;;;;;;;;;;22.80;39.40;;;;;;675473;29;1413;-83
2022/02/18 00:10:22;;;;;;;;;;;22.80;39.50;;;;;;675488;29;884;-84
2022/02/18 00:10:42;;;;;;;;;;;22.80;39.50;;;;;;675776;29;1314;-84
2022/02/18 00:11:06;;;;;;;;;;;22.80;39.40;;;;;;678588;29;1069;-84
2022/02/18 00:11:26;;;;;;;;;;;22.80;39.40;;;;;;678221;29;942;-83
2022/02/18 00:11:47;;;;;;;;;;;22.80;39.30;;;;;;679269;29;1338;-82
2022/02/18 00:12:08;;;;;;;;;;;22.70;39.40;;;;;;681377;29;1041;-83
2022/02/18 00:12:29;;;;;;;;;;;22.80;39.60;;;;;;683435;29;875;-83
2022/02/18 00:12:49;;;;;;;;;;;22.80;39.40;;;;;;683827;29;851;-82
2022/02/18 00:13:10;;;;;;;;;;;22.80;39.40;;;;;;682913;29;894;-84
2022/02/18 00:13:31;;;;;;;;;;;22.80;39.40;;;;;;681149;29;1413;-83
2022/02/18 00:13:52;;;;;;;;;;;22.80;39.50;;;;;;683660;29;736;-84
2022/02/18 00:14:12;;;;;;;;;;;22.80;39.50;;;;;;683764;29;799;-84
2022/02/18 00:14:33;;;;;;;;;;;22.80;39.50;;;;;;680668;29;1386;-85
2022/02/18 00:14:54;;;;;;;;;;;22.80;39.50;;;;;;678277;29;1191;-84
2022/02/18 00:15:14;;;;;;;;;;;22.70;39.30;;;;;;678328;29;796;-85
2022/02/18 00:15:35;;;;;;;;;;;22.80;39.40;;;;;;678218;29;1365;-84
2022/02/18 00:15:56;;;;;;;;;;;22.80;39.40;;;;;;677933;29;1207;-85
2022/02/18 00:16:16;;;;;;;;;;;22.70;39.30;;;;;;675782;29;1142;-84
2022/02/18 00:16:37;;;;;;;;;;;22.80;39.40;;;;;;678559;29;1226;-85
2022/02/18 00:16:57;;;;;;;;;;;22.70;39.30;;;;;;680665;29;867;-84
2022/02/18 00:17:18;;;;;;;;;;;22.70;39.30;;;;;;675848;29;855;-84
2022/02/18 00:17:38;;;;;;;;;;;22.80;39.40;;;;;;673158;29;951;-83
2022/02/18 00:18:01;;;;;;;;;;;22.70;39.30;;;;;;673067;29;824;-84
2022/02/18 00:18:22;;;;;;;;;;;22.80;39.50;;;;;;675404;29;1172;-85
2022/02/18 00:18:42;;;;;;;;;;;22.80;39.40;;;;;;673115;29;1378;-85
2022/02/18 00:19:03;;;;;;;;;;;22.70;39.40;;;;;;673491;29;985;-84
2022/02/18 00:19:24;;;;;;;;;;;22.80;39.50;;;;;;675904;29;811;-84
2022/02/18 00:19:44;;;;;;;;;;;22.70;39.40;;;;;;678591;29;879;-84
2022/02/18 00:20:06;;;;;;;;;;;22.80;39.50;;;;;;680306;29;1087;-85
2022/02/18 00:20:26;;;;;;;;;;;22.70;39.50;;;;;;675561;29;977;-84
2022/02/18 00:20:47;;;;;;;;;;;22.80;39.50;;;;;;678103;29;792;-85
2022/02/18 00:21:07;;;;;;;;;;;22.80;39.60;;;;;;677728;29;1427;-84
2022/02/18 00:21:28;;;;;;;;;;;22.70;40.70;;;;;;677954;29;999;-84
2022/02/18 00:21:49;;;;;;;;;;;22.70;39.50;;;;;;678468;29;939;-84
2022/02/18 00:22:09;;;;;;;;;;;22.70;39.50;;;;;;680893;29;910;-84
2022/02/18 00:22:30;;;;;;;;;;;22.70;39.40;;;;;;683147;29;843;-84
2022/02/18 00:22:51;;;;;;;;;;;22.70;39.50;;;;;;680650;29;1368;-84
2022/02/18 00:23:12;;;;;;;;;;;22.70;39.40;;;;;;677807;29;883;-84
2022/02/18 00:23:33;;;;;;;;;;;22.70;39.40;;;;;;677895;29;918;-85
2022/02/18 00:23:53;;;;;;;;;;;22.70;39.40;;;;;;678003;29;812;-85
2022/02/18 00:24:14;;;;;;;;;;;22.70;39.50;;;;;;675473;29;1332;-84
2022/02/18 00:24:35;;;;;;;;;;;22.70;39.40;;;;;;675478;29;1290;-85
2022/02/18 00:24:55;;;;;;;;;;;22.70;39.50;;;;;;677880;29;930;-84
2022/02/18 00:25:16;;;;;;;;;;;22.70;39.50;;;;;;678045;29;1429;-85
2022/02/18 00:25:38;;;;;;;;;;;22.80;39.60;;;;;;678023;29;780;-85
2022/02/18 00:25:59;;;;;;;;;;;22.70;39.50;;;;;;677957;29;855;-84
2022/02/18 00:26:20;;;;;;;;;;;22.70;39.60;;;;;;675832;29;848;-86
2022/02/18 00:26:41;;;;;;;;;;;22.70;39.50;;;;;;678368;29;1512;-84
2022/02/18 00:27:01;;;;;;;;;;;22.70;39.50;;;;;;677859;29;1203;-84
2022/02/18 00:27:22;;;;;;;;;;;22.70;39.60;;;;;;675356;29;1396;-85
2022/02/18 00:27:42;;;;;;;;;;;22.80;39.50;;;;;;672738;29;828;-85
2022/02/18 00:28:03;;;;;;;;;;;22.70;39.50;;;;;;670062;29;1421;-85
2022/02/18 00:28:24;;;;;;;;;;;22.70;39.50;;;;;;667762;29;1896;-85
2022/02/18 00:28:45;;;;;;;;;;;22.80;39.60;;;;;;670474;29;1352;-84
2022/02/18 00:29:06;;;;;;;;;;;22.80;39.60;;;;;;670479;29;1218;-85
2022/02/18 00:29:26;;;;;;;;;;;22.70;39.50;;;;;;673144;29;800;-85
2022/02/18 00:29:47;;;;;;;;;;;22.70;39.60;;;;;;673061;29;865;-85
2022/02/18 00:30:08;;;;;;;;;;;22.70;39.80;;;;;;675500;29;1415;-84
2022/02/18 00:30:30;;;;;;;;;;;22.70;40.20;;;;;;677741;29;1159;-85
2022/02/18 00:30:50;;;;;;;;;;;22.80;40.30;;;;;;678350;29;816;-84
2022/02/18 00:31:11;;;;;;;;;;;22.80;40.40;;;;;;677465;29;1402;-85
2022/02/18 00:31:32;;;;;;;;;;;22.70;40.30;;;;;;677949;29;1406;-85
2022/02/18 00:31:52;;;;;;;;;;;22.80;40.40;;;;;;680066;29;1202;-86
2022/02/18 00:32:13;;;;;;;;;;;22.70;40.30;;;;;;677969;29;1409;-86
2022/02/18 00:32:34;;;;;;;;;;;22.80;40.40;;;;;;677844;29;807;-85
2022/02/18 00:32:54;;;;;;;;;;;22.80;40.30;;;;;;677717;29;1371;-85
2022/02/18 00:33:15;;;;;;;;;;;22.80;40.30;;;;;;678276;29;788;-83
2022/02/18 00:33:35;;;;;;;;;;;22.80;40.40;;;;;;680805;29;804;-84
2022/02/18 00:33:56;;;;;;;;;;;22.80;40.30;;;;;;682807;29;870;-84
2022/02/18 00:34:16;;;;;;;;;;;22.80;40.40;;;;;;680228;29;1203;-84
2022/02/18 00:34:37;;;;;;;;;;;22.80;40.30;;;;;;677819;29;1142;-85
2022/02/18 00:34:59;;;;;;;;;;;22.80;40.40;;;;;;677955;29;809;-84
2022/02/18 00:35:19;;;;;;;;;;;22.80;40.30;;;;;;677802;29;1499;-85
2022/02/18 00:35:40;;;;;;;;;;;22.80;40.30;;;;;;675270;29;1560;-85
2022/02/18 00:36:01;;;;;;;;;;;22.80;40.40;;;;;;673116;29;852;-84
2022/02/18 00:36:22;;;;;;;;;;;22.80;40.30;;;;;;675822;29;781;-84
2022/02/18 00:36:42;;;;;;;;;;;22.80;40.30;;;;;;677833;29;808;-85
2022/02/18 00:37:03;;;;;;;;;;;22.80;40.30;;;;;;675129;29;1191;-84
2022/02/18 00:37:25;;;;;;;;;;;22.80;40.30;;;;;;675640;29;1438;-84
2022/02/18 00:37:46;;;;;;;;;;;22.80;40.30;;;;;;678258;29;1208;-83
2022/02/18 00:38:07;;;;;;;;;;;22.80;40.30;;;;;;677863;29;832;-83
2022/02/18 00:38:28;;;;;;;;;;;22.80;40.30;;;;;;677965;29;872;-83
2022/02/18 00:38:48;;;;;;;;;;;22.80;40.30;;;;;;678471;29;1371;-83
2022/02/18 00:39:09;;;;;;;;;;;22.80;40.30;;;;;;680470;29;828;-83
2022/02/18 00:39:30;;;;;;;;;;;22.90;40.20;;;;;;680557;29;799;-83
2022/02/18 00:39:50;;;;;;;;;;;22.80;40.30;;;;;;680702;29;764;-83
2022/02/18 00:40:11;;;;;;;;;;;22.80;40.30;;;;;;680537;29;883;-83
2022/02/18 00:40:32;;;;;;;;;;;22.90;40.30;;;;;;678065;29;1489;-83
2022/02/18 00:40:53;;;;;;;;;;;22.90;40.30;;;;;;680467;29;1366;-83
2022/02/18 00:41:13;;;;;;;;;;;22.80;41.30;;;;;;680696;29;867;-83
2022/02/18 00:41:34;;;;;;;;;;;22.90;40.20;;;;;;677879;29;1109;-83
2022/02/18 00:41:54;;;;;;;;;;;22.90;40.20;;;;;;677874;29;1099;-83
2022/02/18 00:42:15;;;;;;;;;;;22.90;40.30;;;;;;678056;29;927;-83
2022/02/18 00:42:35;;;;;;;;;;;22.90;40.20;;;;;;677755;29;1305;-83
2022/02/18 00:42:56;;;;;;;;;;;22.90;40.30;;;;;;677976;29;807;-83
2022/02/18 00:43:17;;;;;;;;;;;22.90;40.20;;;;;;678250;29;868;-83
2022/02/18 00:43:37;;;;;;;;;;;22.90;40.20;;;;;;677762;29;1492;-83
2022/02/18 00:43:58;;;;;;;;;;;22.90;40.20;;;;;;677842;29;931;-83
2022/02/18 00:44:18;;;;;;;;;;;22.90;40.20;;;;;;675768;29;1242;-84
2022/02/18 00:44:39;;;;;;;;;;;22.90;40.20;;;;;;675262;29;1261;-83
2022/02/18 00:44:59;;;;;;;;;;;22.90;40.20;;;;;;675272;29;1354;-83
2022/02/18 00:45:20;;;;;;;;;;;22.90;40.20;;;;;;672681;29;1507;-84
2022/02/18 00:45:41;;;;;;;;;;;22.90;40.20;;;;;;675339;29;883;-84
2022/02/18 00:46:02;;;;;;;;;;;22.90;40.20;;;;;;675594;29;804;-84
2022/02/18 00:46:22;;;;;;;;;;;22.90;40.20;;;;;;675581;29;895;-83
2022/02/18 00:46:43;;;;;;;;;;;22.90;40.20;;;;;;678012;29;805;-84
2022/02/18 00:47:05;;;;;;;;;;;22.90;40.20;;;;;;678240;29;1005;-83
2022/02/18 00:47:25;;;;;;;;;;;22.90;40.20;;;;;;677805;29;887;-83
2022/02/18 00:47:47;;;;;;;;;;;22.90;40.20;;;;;;678012;29;930;-83
2022/02/18 00:48:09;;;;;;;;;;;22.90;40.20;;;;;;678363;29;883;-83
2022/02/18 00:48:29;;;;;;;;;;;22.90;40.20;;;;;;680396;29;1981;-83
2022/02/18 00:48:50;;;;;;;;;;;22.90;40.20;;;;;;677740;29;1390;-83
2022/02/18 00:49:10;;;;;;;;;;;22.90;41.30;;;;;;675233;29;1248;-83
2022/02/18 00:49:31;;;;;;;;;;;22.90;40.20;;;;;;675264;29;1457;-83
2022/02/18 00:49:52;;;;;;;;;;;22.90;40.20;;;;;;673138;29;1279;-83
2022/02/18 00:50:12;;;;;;;;;;;22.90;40.20;;;;;;672800;29;1282;-83
2022/02/18 00:50:33;;;;;;;;;;;22.90;40.20;;;;;;672860;29;1181;-84
2022/02/18 00:50:53;;;;;;;;;;;22.90;40.20;;;;;;675645;29;807;-82
2022/02/18 00:51:14;;;;;;;;;;;22.90;40.20;;;;;;678004;29;1052;-81
2022/02/18 00:51:35;;;;;;;;;;;22.90;40.20;;;;;;677833;29;853;-82
2022/02/18 00:51:55;;;;;;;;;;;22.90;40.20;;;;;;678079;29;934;-81
2022/02/18 00:52:17;;;;;;;;;;;22.90;40.20;;;;;;680934;29;842;-80
2022/02/18 00:52:38;;;;;;;;;;;22.90;40.20;;;;;;680433;29;851;-80
2022/02/18 00:52:58;;;;;;;;;;;22.90;40.20;;;;;;680448;29;808;-81
2022/02/18 00:53:19;;;;;;;;;;;22.90;40.20;;;;;;680609;29;874;-82
2022/02/18 00:53:40;;;;;;;;;;;22.90;40.20;;;;;;680479;29;914;-81
2022/02/18 00:54:01;;;;;;;;;;;22.90;40.10;;;;;;680449;29;831;-81
2022/02/18 00:54:21;;;;;;;;;;;22.90;40.20;;;;;;681213;29;843;-82
2022/02/18 00:54:42;;;;;;;;;;;22.90;40.20;;;;;;680049;29;1444;-82
2022/02/18 00:55:03;;;;;;;;;;;22.90;40.20;;;;;;677811;29;860;-83
2022/02/18 00:55:24;;;;;;;;;;;22.90;40.20;;;;;;677851;29;1005;-83
2022/02/18 00:55:44;;;;;;;;;;;22.90;40.20;;;;;;677925;29;859;-83
2022/02/18 00:56:05;;;;;;;;;;;22.90;40.20;;;;;;677841;29;894;-81
2022/02/18 00:56:26;;;;;;;;;;;22.90;40.20;;;;;;678205;29;813;-82
2022/02/18 00:56:46;;;;;;;;;;;22.90;40.20;;;;;;680559;29;1340;-82
2022/02/18 00:57:07;;;;;;;;;;;22.90;40.20;;;;;;677795;29;1285;-82
2022/02/18 00:57:28;;;;;;;;;;;22.90;40.20;;;;;;678191;29;1441;-82
2022/02/18 00:57:48;;;;;;;;;;;23.00;40.30;;;;;;677897;29;1219;-82
2022/02/18 00:58:09;;;;;;;;;;;23.00;40.20;;;;;;677793;29;799;-82
2022/02/18 00:58:29;;;;;;;;;;;22.90;40.20;;;;;;677854;29;868;-82
2022/02/18 00:58:50;;;;;;;;;;;22.90;40.20;;;;;;678211;29;1410;-83
2022/02/18 00:59:10;;;;;;;;;;;23.00;40.30;;;;;;680475;29;879;-81
2022/02/18 00:59:31;;;;;;;;;;;22.90;40.20;;;;;;682522;28;1553;-82
2022/02/18 00:59:52;;;;;;;;;;;22.90;40.20;;;;;;686102;28;863;-82
2022/02/18 01:00:15;;;;;;;;;;;23.00;40.30;;;;;;685955;28;1813;-82
2022/02/18 01:00:35;;;;;;;;;;;23.00;40.30;;;;;;685990;28;897;-81
2022/02/18 01:00:56;;;;;;;;;;;23.00;40.20;;;;;;685906;28;1397;-81
2022/02/18 01:01:17;;;;;;;;;;;22.90;40.20;;;;;;685884;28;1455;-82
2022/02/18 01:01:37;;;;;;;;;;;23.00;40.30;;;;;;686031;28;831;-81
2022/02/18 01:01:58;;;;;;;;;;;22.90;40.20;;;;;;682974;29;883;-82
2022/02/18 01:02:18;;;;;;;;;;;23.00;40.30;;;;;;683089;29;1330;-83
2022/02/18 01:02:39;;;;;;;;;;;22.90;40.20;;;;;;680402;29;938;-83
2022/02/18 01:02:59;;;;;;;;;;;22.90;40.20;;;;;;680468;29;922;-83
2022/02/18 01:03:20;;;;;;;;;;;23.00;40.30;;;;;;680515;29;835;-84
2022/02/18 01:03:41;;;;;;;;;;;22.90;40.20;;;;;;680799;29;807;-82
2022/02/18 01:04:02;;;;;;;;;;;22.90;40.20;;;;;;683034;29;899;-83
2022/02/18 01:04:23;;;;;;;;;;;22.90;40.30;;;;;;683005;29;1390;-83
2022/02/18 01:04:43;;;;;;;;;;;22.90;40.20;;;;;;683260;29;791;-81
2022/02/18 01:05:04;;;;;;;;;;;22.90;40.20;;;;;;680042;29;1358;-83
2022/02/18 01:05:25;;;;;;;;;;;22.90;40.20;;;;;;681205;29;1445;-82
2022/02/18 01:05:47;;;;;;;;;;;22.90;40.20;;;;;;683182;29;906;-82
2022/02/18 01:06:07;;;;;;;;;;;22.90;40.30;;;;;;680341;29;836;-81
2022/02/18 01:06:28;;;;;;;;;;;22.90;40.30;;;;;;680409;29;858;-83
2022/02/18 01:06:49;;;;;;;;;;;22.90;40.30;;;;;;680393;29;1331;-82
2022/02/18 01:07:09;;;;;;;;;;;22.90;40.30;;;;;;680370;29;812;-82
2022/02/18 01:07:30;;;;;;;;;;;22.90;40.30;;;;;;680460;29;922;-82
2022/02/18 01:07:50;;;;;;;;;;;22.90;40.30;;;;;;680856;29;811;-84
2022/02/18 01:08:11;;;;;;;;;;;22.90;40.40;;;;;;683380;29;863;-82
2022/02/18 01:08:35;;;;;;;;;;;22.90;40.40;;;;;;680294;29;1906;-82
2022/02/18 01:08:56;;;;;;;;;;;22.90;40.40;;;;;;680298;29;1299;-81
2022/02/18 01:09:16;;;;;;;;;;;22.90;40.40;;;;;;680532;29;815;-81
2022/02/18 01:09:37;;;;;;;;;;;22.90;40.40;;;;;;680416;29;1290;-82
2022/02/18 01:09:58;;;;;;;;;;;22.90;40.40;;;;;;680472;29;863;-82
2022/02/18 01:10:19;;;;;;;;;;;22.90;40.40;;;;;;680534;29;815;-82
2022/02/18 01:10:39;;;;;;;;;;;22.90;40.40;;;;;;677716;29;1242;-83
2022/02/18 01:11:00;;;;;;;;;;;22.90;40.40;;;;;;677910;29;903;-80
2022/02/18 01:11:20;;;;;;;;;;;22.80;40.40;;;;;;675605;29;1257;-82
2022/02/18 01:11:41;;;;;;;;;;;22.90;40.50;;;;;;677885;29;891;-82
2022/02/18 01:12:02;;;;;;;;;;;22.80;40.40;;;;;;677860;29;866;-83
2022/02/18 01:12:22;;;;;;;;;;;22.90;40.50;;;;;;678150;29;872;-83
2022/02/18 01:12:43;;;;;;;;;;;22.80;40.40;;;;;;677885;29;832;-82
2022/02/18 01:13:03;;;;;;;;;;;22.90;40.50;;;;;;678093;29;855;-82
2022/02/18 01:13:24;;;;;;;;;;;22.80;40.40;;;;;;677752;29;1103;-81
2022/02/18 01:13:45;;;;;;;;;;;22.80;40.40;;;;;;677936;29;796;-81
2022/02/18 01:14:05;;;;;;;;;;;22.80;40.40;;;;;;677779;29;823;-83
2022/02/18 01:14:26;;;;;;;;;;;22.80;40.40;;;;;;677866;29;819;-81
2022/02/18 01:14:46;;;;;;;;;;;22.90;40.50;;;;;;675299;29;1184;-81
2022/02/18 01:15:08;;;;;;;;;;;22.80;40.50;;;;;;675417;29;1219;-81
2022/02/18 01:15:29;;;;;;;;;;;22.80;40.40;;;;;;677429;29;1208;-80
2022/02/18 01:15:49;;;;;;;;;;;22.80;40.50;;;;;;678402;29;831;-83
2022/02/18 01:16:10;;;;;;;;;;;22.80;40.50;;;;;;680505;29;852;-82
2022/02/18 01:16:31;;;;;;;;;;;22.80;40.50;;;;;;677667;29;1275;-82
2022/02/18 01:16:51;;;;;;;;;;;22.80;40.50;;;;;;678372;29;796;-81
2022/02/18 01:17:12;;;;;;;;;;;22.80;40.50;;;;;;680408;29;831;-81
2022/02/18 01:17:32;;;;;;;;;;;22.80;40.50;;;;;;680828;29;1497;-79
2022/02/18 01:17:53;;;;;;;;;;;22.80;40.50;;;;;;683040;29;953;-80
2022/02/18 01:18:14;;;;;;;;;;;22.80;40.40;;;;;;683457;28;847;-80
2022/02/18 01:18:34;;;;;;;;;;;22.80;40.50;;;;;;685995;28;772;-80
2022/02/18 01:18:55;;;;;;;;;;;22.80;40.40;;;;;;685958;28;795;-80
2022/02/18 01:19:15;;;;;;;;;;;22.80;40.50;;;;;;685997;28;902;-81
2022/02/18 01:19:36;;;;;;;;;;;22.80;40.40;;;;;;685876;28;842;-82
2022/02/18 01:19:56;;;;;;;;;;;22.80;40.40;;;;;;685954;28;898;-80
2022/02/18 01:20:17;;;;;;;;;;;22.80;40.40;;;;;;686046;28;819;-79
2022/02/18 01:20:38;;;;;;;;;;;22.80;40.40;;;;;;685942;28;885;-78
2022/02/18 01:20:58;;;;;;;;;;;22.80;40.40;;;;;;685970;28;889;-80
2022/02/18 01:21:20;;;;;;;;;;;22.80;40.50;;;;;;685923;28;910;-80
2022/02/18 01:21:40;;;;;;;;;;;22.80;40.40;;;;;;685843;28;946;-81
2022/02/18 01:22:01;;;;;;;;;;;22.80;40.40;;;;;;685929;28;863;-80
2022/02/18 01:22:21;;;;;;;;;;;22.80;40.40;;;;;;685957;28;957;-81
2022/02/18 01:22:42;;;;;;;;;;;22.80;40.50;;;;;;685966;28;781;-81
2022/02/18 01:23:02;;;;;;;;;;;22.80;40.40;;;;;;685795;28;1319;-80
2022/02/18 01:23:23;;;;;;;;;;;22.70;40.30;;;;;;685832;28;799;-81
2022/02/18 01:23:43;;;;;;;;;;;22.80;40.30;;;;;;686039;28;842;-79
2022/02/18 01:24:05;;;;;;;;;;;22.80;40.40;;;;;;685935;28;831;-80
2022/02/18 01:24:26;;;;;;;;;;;22.80;40.40;;;;;;685848;28;806;-80
2022/02/18 01:24:46;;;;;;;;;;;22.80;40.40;;;;;;686034;28;858;-81
2022/02/18 01:25:09;;;;;;;;;;;22.70;40.30;;;;;;685852;28;874;-81
2022/02/18 01:25:29;;;;;;;;;;;22.80;40.40;;;;;;685771;28;1271;-82
2022/02/18 01:25:50;;;;;;;;;;;22.80;40.40;;;;;;683038;29;1552;-81
2022/02/18 01:26:10;;;;;;;;;;;22.80;40.40;;;;;;683035;29;888;-81
2022/02/18 01:26:32;;;;;;;;;;;22.70;40.30;;;;;;682978;29;863;-81
2022/02/18 01:26:53;;;;;;;;;;;22.80;40.40;;;;;;683118;29;859;-81
2022/02/18 01:27:13;;;;;;;;;;;22.70;40.30;;;;;;683044;29;1343;-81
2022/02/18 01:27:34;;;;;;;;;;;22.70;40.30;;;;;;680298;29;835;-81
2022/02/18 01:27:56;;;;;;;;;;;22.70;40.40;;;;;;680505;29;792;-80
2022/02/18 01:28:16;;;;;;;;;;;22.70;40.40;;;;;;680360;29;1902;-86
2022/02/18 01:28:37;;;;;;;;;;;22.70;40.40;;;;;;680011;29;1254;-84
2022/02/18 01:28:57;;;;;;;;;;;22.70;40.40;;;;;;680819;29;864;-85
2022/02/18 01:29:18;;;;;;;;;;;22.70;40.30;;;;;;682799;29;1175;-85
2022/02/18 01:29:41;;;;;;;;;;;22.70;40.30;;;;;;683155;29;946;-84
2022/02/18 01:30:02;;;;;;;;;;;22.70;40.30;;;;;;683132;29;1005;-82
2022/02/18 01:30:24;;;;;;;;;;;22.70;40.30;;;;;;680304;29;1260;-83
2022/02/18 01:30:45;;;;;;;;;;;22.70;40.40;;;;;;677936;29;1480;-83
2022/02/18 01:31:05;;;;;;;;;;;22.70;40.40;;;;;;678703;29;784;-84
2022/02/18 01:31:26;;;;;;;;;;;22.70;40.30;;;;;;680165;29;1101;-83
2022/02/18 01:31:47;;;;;;;;;;;22.70;40.30;;;;;;677792;29;1227;-85
2022/02/18 01:32:08;;;;;;;;;;;22.70;40.30;;;;;;678215;29;1222;-83
2022/02/18 01:32:29;;;;;;;;;;;22.70;40.30;;;;;;680701;29;1312;-83
2022/02/18 01:32:50;;;;;;;;;;;22.70;40.30;;;;;;680350;29;1359;-83
2022/02/18 01:33:10;;;;;;;;;;;22.70;40.30;;;;;;680400;29;1243;-85
2022/02/18 01:33:31;;;;;;;;;;;22.70;40.30;;;;;;680387;29;1234;-82
2022/02/18 01:33:57;;;;;;;;;;;22.70;40.50;;;;;;677393;29;1380;-85
2022/02/18 01:34:18;;;;;;;;;;;22.70;40.40;;;;;;677798;29;1306;-82
2022/02/18 01:34:39;;;;;;;;;;;22.70;40.40;;;;;;676204;29;1120;-83
2022/02/18 01:34:59;;;;;;;;;;;22.70;40.40;;;;;;675133;29;1464;-83
2022/02/18 01:35:23;;;;;;;;;;;22.70;40.40;;;;;;672649;29;844;-83
2022/02/18 01:35:43;;;;;;;;;;;22.70;40.50;;;;;;673698;29;1099;-84
2022/02/18 01:36:04;;;;;;;;;;;22.70;40.40;;;;;;673157;29;1248;-84
2022/02/18 01:36:25;;;;;;;;;;;22.70;40.40;;;;;;675183;29;978;-83
2022/02/18 01:36:46;;;;;;;;;;;22.70;40.40;;;;;;675829;29;883;-83
2022/02/18 01:37:07;;;;;;;;;;;22.70;40.40;;;;;;678472;29;1192;-81
2022/02/18 01:37:28;;;;;;;;;;;22.70;40.40;;;;;;677868;29;1329;-83
2022/02/18 01:37:49;;;;;;;;;;;22.70;40.40;;;;;;677844;29;765;-83
2022/02/18 01:38:09;;;;;;;;;;;22.70;40.50;;;;;;677763;29;800;-83
2022/02/18 01:38:30;;;;;;;;;;;22.70;40.40;;;;;;678144;29;1397;-86
2022/02/18 01:38:51;;;;;;;;;;;22.70;40.40;;;;;;677770;29;965;-85
2022/02/18 01:39:11;;;;;;;;;;;22.70;40.30;;;;;;675228;29;1447;-84
2022/02/18 01:39:32;;;;;;;;;;;22.70;40.40;;;;;;675634;29;1108;-84
2022/02/18 01:39:53;;;;;;;;;;;22.70;40.40;;;;;;675139;29;1258;-86
2022/02/18 01:40:14;;;;;;;;;;;22.70;40.40;;;;;;672989;29;1318;-85
2022/02/18 01:40:35;;;;;;;;;;;22.70;40.40;;;;;;675609;29;1246;-86
2022/02/18 01:40:56;;;;;;;;;;;22.70;40.40;;;;;;677963;29;874;-85
2022/02/18 01:41:17;;;;;;;;;;;22.70;40.40;;;;;;675238;29;1255;-84
2022/02/18 01:41:37;;;;;;;;;;;22.70;40.30;;;;;;675603;29;1235;-85
2022/02/18 01:41:58;;;;;;;;;;;22.70;41.50;;;;;;677877;29;1255;-84
2022/02/18 01:42:19;;;;;;;;;;;22.70;40.40;;;;;;678091;29;1307;-84
2022/02/18 01:42:40;;;;;;;;;;;22.70;40.40;;;;;;677427;29;1237;-86
2022/02/18 01:43:01;;;;;;;;;;;22.70;40.40;;;;;;677762;29;1225;-85
2022/02/18 01:43:22;;;;;;;;;;;22.70;40.50;;;;;;677903;29;1231;-87
2022/02/18 01:43:49;;;;;;;;;;;22.70;40.40;;;;;;675188;29;1093;-85
2022/02/18 01:44:09;;;;;;;;;;;22.70;40.40;;;;;;676484;29;1249;-85
2022/02/18 01:44:31;;;;;;;;;;;22.70;40.50;;;;;;677793;29;891;-85
2022/02/18 01:44:52;;;;;;;;;;;22.70;40.40;;;;;;676579;29;1239;-87
2022/02/18 01:45:13;;;;;;;;;;;22.70;40.50;;;;;;675041;29;1246;-90
2022/02/18 01:45:33;;;;;;;;;;;22.70;40.40;;;;;;676621;29;1543;-88
2022/02/18 01:45:54;;;;;;;;;;;22.70;40.40;;;;;;675720;29;1159;-89
2022/02/18 01:46:14;;;;;;;;;;;22.70;40.50;;;;;;677936;29;1193;-90
2022/02/18 01:46:35;;;;;;;;;;;22.70;40.40;;;;;;678114;29;836;-88
2022/02/18 01:46:55;;;;;;;;;;;22.70;40.50;;;;;;680559;29;903;-87
2022/02/18 01:47:17;;;;;;;;;;;22.70;40.50;;;;;;680720;29;1195;-90
2022/02/18 01:47:38;;;;;;;;;;;22.70;40.60;;;;;;677425;29;1494;-88
2022/02/18 01:47:59;;;;;;;;;;;22.70;40.50;;;;;;677771;29;1289;-90
2022/02/18 01:48:19;;;;;;;;;;;22.70;40.50;;;;;;675180;29;1961;-88
2022/02/18 01:48:40;;;;;;;;;;;22.70;40.50;;;;;;672413;29;1335;-87
2022/02/18 01:49:00;;;;;;;;;;;22.70;40.50;;;;;;670417;29;1197;-91
2022/02/18 01:49:21;;;;;;;;;;;22.70;40.50;;;;;;673026;29;1223;-89
2022/02/18 01:49:42;;;;;;;;;;;22.70;40.40;;;;;;670603;29;1330;-90
2022/02/18 01:50:04;;;;;;;;;;;22.60;40.40;;;;;;672688;29;1232;-89
2022/02/18 01:50:25;;;;;;;;;;;22.70;41.60;;;;;;670608;29;1232;-91
2022/02/18 01:50:45;;;;;;;;;;;22.70;40.50;;;;;;670742;29;1228;-88
2022/02/18 01:51:06;;;;;;;;;;;22.60;40.50;;;;;;670683;29;1303;-91
2022/02/18 01:51:27;;;;;;;;;;;22.70;40.50;;;;;;672635;29;1330;-91
2022/02/18 01:51:47;;;;;;;;;;;22.70;40.60;;;;;;672704;29;1200;-90
2022/02/18 01:52:08;;;;;;;;;;;22.70;40.60;;;;;;672997;29;1223;-87
2022/02/18 01:52:31;;;;;;;;;;;22.70;40.50;;;;;;672916;29;1227;-89
2022/02/18 01:52:52;;;;;;;;;;;22.60;40.40;;;;;;673288;29;1501;-89
2022/02/18 01:53:13;;;;;;;;;;;22.70;40.60;;;;;;675334;29;836;-90
2022/02/18 01:53:34;;;;;;;;;;;22.70;40.50;;;;;;675932;29;1362;-91
2022/02/18 01:53:55;;;;;;;;;;;22.60;40.50;;;;;;678571;29;1394;-90
2022/02/18 01:54:16;;;;;;;;;;;22.60;40.50;;;;;;678759;29;931;-89
2022/02/18 01:54:37;;;;;;;;;;;22.60;40.50;;;;;;677871;29;1298;-88
2022/02/18 01:54:58;;;;;;;;;;;22.60;40.50;;;;;;677780;29;1274;-88
2022/02/18 01:55:19;;;;;;;;;;;22.70;40.50;;;;;;677939;29;1112;-88
2022/02/18 01:55:39;;;;;;;;;;;22.70;40.50;;;;;;678512;29;1247;-87
2022/02/18 01:56:00;;;;;;;;;;;22.70;40.60;;;;;;680033;29;1238;-89
2022/02/18 01:56:22;;;;;;;;;;;22.70;40.60;;;;;;677926;29;1446;-89
2022/02/18 01:56:42;;;;;;;;;;;22.60;41.70;;;;;;675299;29;1273;-90
2022/02/18 01:57:03;;;;;;;;;;;22.60;40.50;;;;;;672318;29;1424;-87
2022/02/18 01:57:24;;;;;;;;;;;22.60;40.60;;;;;;675674;29;1096;-89
2022/02/18 01:57:49;;;;;;;;;;;22.70;40.60;;;;;;675819;29;1307;-87
2022/02/18 01:58:09;;;;;;;;;;;22.60;40.50;;;;;;676169;29;1446;-88
2022/02/18 01:58:30;;;;;;;;;;;22.70;40.60;;;;;;676007;29;1252;-90
2022/02/18 01:58:51;;;;;;;;;;;22.60;40.60;;;;;;678675;29;1220;-88
2022/02/18 01:59:11;;;;;;;;;;;22.60;40.60;;;;;;676931;29;1250;-89
2022/02/18 01:59:32;;;;;;;;;;;22.60;40.50;;;;;;676070;29;1352;-90
2022/02/18 01:59:53;;;;;;;;;;;22.70;40.60;;;;;;678061;29;1309;-91
2022/02/18 02:00:14;;;;;;;;;;;22.60;40.50;;;;;;678146;29;1269;-89
2022/02/18 02:00:35;;;;;;;;;;;22.60;40.40;;;;;;674650;29;1565;-88
2022/02/18 02:00:55;;;;;;;;;;;22.60;40.50;;;;;;673114;29;1189;-87
2022/02/18 02:01:16;;;;;;;;;;;22.60;40.50;;;;;;674829;29;1276;-86
2022/02/18 02:01:36;;;;;;;;;;;22.60;40.50;;;;;;672765;29;1250;-87
2022/02/18 02:02:01;;;;;;;;;;;22.60;40.50;;;;;;670280;29;1235;-87
2022/02/18 02:02:22;;;;;;;;;;;22.60;40.50;;;;;;671100;29;836;-89
2022/02/18 02:02:42;;;;;;;;;;;22.60;40.50;;;;;;671107;29;1376;-90
2022/02/18 02:03:03;;;;;;;;;;;22.60;40.50;;;;;;671129;29;1333;-89
2022/02/18 02:03:24;;;;;;;;;;;22.60;40.50;;;;;;671009;29;1231;-89
2022/02/18 02:03:45;;;;;;;;;;;22.60;40.50;;;;;;671308;29;1379;-90
2022/02/18 02:04:06;;;;;;;;;;;22.60;41.60;;;;;;672630;29;1361;-89
2022/02/18 02:04:27;;;;;;;;;;;22.60;40.60;;;;;;673271;29;797;-90
2022/02/18 02:04:47;;;;;;;;;;;22.60;40.50;;;;;;675544;29;1306;-89
2022/02/18 02:05:09;;;;;;;;;;;22.70;40.60;;;;;;675881;29;1366;-89
2022/02/18 02:05:29;;;;;;;;;;;22.60;41.70;;;;;;678480;29;788;-89
2022/02/18 02:05:51;;;;;;;;;;;22.60;40.50;;;;;;677949;29;1286;-88